createdAt,value
2022-09-17T00:01:50.046Z,70.73
2022-09-17T00:03:56.530Z,70.70
2022-09-17T00:06:09.242Z,70.69
2022-09-17T00:08:13.944Z,70.86
2022-09-17T00:10:15.691Z,70.66
2022-09-17T00:12:17.576Z,70.70
2022-09-17T00:14:19.213Z,70.85
2022-09-17T00:16:23.800Z,70.78
2022-09-17T00:18:25.483Z,70.68
2022-09-17T00:20:27.629Z,70.73
2022-09-17T00:22:29.331Z,70.56
2022-09-17T00:24:30.906Z,70.74
2022-09-17T00:26:33.836Z,70.42
2022-09-17T00:28:35.622Z,70.40
2022-09-17T00:30:45.836Z,71.39
2022-09-17T00:32:47.450Z,72.06
2022-09-17T00:34:52.175Z,72.57
2022-09-17T00:36:53.746Z,72.43
2022-09-17T00:38:59.767Z,72.43
2022-09-17T00:41:03.162Z,72.12
2022-09-17T00:43:05.603Z,72.21
2022-09-17T00:45:07.684Z,72.17
2022-09-17T00:47:15.303Z,72.58
2022-09-17T00:49:17.650Z,72.65
2022-09-17T00:51:23.274Z,72.68
2022-09-17T00:53:24.841Z,72.56
2022-09-17T00:55:34.145Z,73.16
2022-09-17T00:57:35.854Z,74.88
2022-09-17T00:59:37.588Z,76.45
2022-09-17T01:01:39.273Z,77.20
2022-09-17T01:03:41.573Z,77.42
2022-09-17T01:05:50.362Z,77.08
2022-09-17T01:08:08.091Z,76.45
2022-09-17T01:10:35.818Z,75.89
2022-09-17T01:12:56.338Z,74.80
2022-09-17T01:15:16.751Z,75.02
2022-09-17T01:17:18.386Z,75.19
2022-09-17T01:19:30.045Z,75.21
2022-09-17T01:21:38.344Z,75.68
2022-09-17T01:23:45.976Z,75.48
2022-09-17T01:25:56.738Z,75.95
2022-09-17T01:28:16.813Z,75.85
2022-09-17T01:30:31.293Z,76.91
2022-09-17T01:32:46.902Z,77.10
2022-09-17T01:34:54.720Z,76.40
2022-09-17T01:37:04.575Z,76.38
2022-09-17T01:39:12.919Z,75.93
2022-09-17T01:41:31.012Z,75.59
2022-09-17T01:43:39.178Z,74.86
2022-09-17T01:45:51.211Z,74.50
2022-09-17T01:47:57.108Z,74.21
2022-09-17T01:50:03.671Z,73.87
2022-09-17T01:52:07.564Z,74.17
2022-09-17T01:54:21.627Z,76.12
2022-09-17T01:56:26.609Z,77.92
2022-09-17T01:58:32.043Z,79.13
2022-09-17T02:00:34.046Z,79.61
2022-09-17T02:02:53.917Z,79.52
2022-09-17T02:05:07.138Z,79.24
2022-09-17T02:07:15.382Z,78.80
2022-09-17T02:09:34.058Z,78.03
2022-09-17T02:11:37.649Z,77.44
2022-09-17T02:13:43.183Z,76.90
2022-09-17T02:15:49.945Z,76.57
2022-09-17T02:18:20.350Z,76.21
2022-09-17T02:20:28.389Z,75.98
2022-09-17T02:22:56.964Z,76.29
2022-09-17T02:25:07.583Z,76.33
2022-09-17T02:27:17.727Z,76.51
2022-09-17T02:29:39.724Z,76.25
2022-09-17T02:31:42.034Z,76.06
2022-09-17T02:33:46.675Z,75.94
2022-09-17T02:35:48.291Z,77.69
2022-09-17T02:37:50.198Z,79.50
2022-09-17T02:39:51.794Z,79.85
2022-09-17T02:42:24.444Z,80.22
2022-09-17T02:44:43.047Z,81.51
2022-09-17T02:47:16.891Z,82.99
2022-09-17T02:49:37.810Z,83.16
2022-09-17T02:51:47.629Z,82.03
2022-09-17T02:53:59.482Z,81.72
2022-09-17T02:56:13.710Z,81.25
2022-09-17T02:58:21.644Z,80.78
2022-09-17T03:00:24.204Z,79.94
2022-09-17T03:02:31.366Z,79.31
2022-09-17T03:04:34.211Z,78.60
2022-09-17T03:06:35.960Z,78.14
2022-09-17T03:08:41.274Z,78.07
2022-09-17T03:10:43.258Z,78.00
2022-09-17T03:12:44.838Z,78.68
2022-09-17T03:14:46.584Z,78.19
2022-09-17T03:16:48.288Z,77.91
2022-09-17T03:18:49.980Z,78.99
2022-09-17T03:20:51.664Z,79.35
2022-09-17T03:22:53.264Z,79.01
2022-09-17T03:24:54.840Z,78.70
2022-09-17T03:26:56.478Z,78.05
2022-09-17T03:28:58.739Z,77.42
2022-09-17T03:31:00.536Z,76.74
2022-09-17T03:33:02.220Z,76.06
2022-09-17T03:35:04.039Z,76.02
2022-09-17T03:37:05.734Z,75.71
2022-09-17T03:39:07.611Z,75.65
2022-09-17T03:41:09.207Z,75.29
2022-09-17T03:43:11.159Z,75.58
2022-09-17T03:45:13.076Z,75.79
2022-09-17T03:47:17.021Z,75.39
2022-09-17T03:49:18.750Z,75.60
2022-09-17T03:51:20.455Z,76.12
2022-09-17T03:53:22.036Z,76.01
2022-09-17T03:55:23.616Z,76.04
2022-09-17T03:57:25.555Z,75.58
2022-09-17T03:59:27.469Z,75.29
2022-09-17T04:01:29.420Z,75.36
2022-09-17T04:03:31.465Z,75.50
2022-09-17T04:05:33.379Z,75.37
2022-09-17T04:07:34.973Z,75.35
2022-09-17T04:09:36.835Z,75.03
2022-09-17T04:11:38.512Z,75.21
2022-09-17T04:13:40.135Z,75.17
2022-09-17T04:15:42.419Z,75.73
2022-09-17T04:17:44.236Z,75.99
2022-09-17T04:19:45.784Z,76.36
2022-09-17T04:21:47.536Z,78.29
2022-09-17T04:23:49.111Z,80.49
2022-09-17T04:25:50.767Z,82.40
2022-09-17T04:27:52.824Z,82.79
2022-09-17T04:29:54.468Z,82.88
2022-09-17T04:31:56.039Z,81.70
2022-09-17T04:33:57.743Z,81.73
2022-09-17T04:35:59.358Z,80.66
2022-09-17T04:38:01.214Z,79.78
2022-09-17T04:40:07.547Z,79.45
2022-09-17T04:42:09.608Z,78.91
2022-09-17T04:44:11.257Z,78.66
2022-09-17T04:46:14.493Z,78.20
2022-09-17T04:48:16.687Z,77.83
2022-09-17T04:50:19.420Z,77.78
2022-09-17T04:52:21.057Z,77.55
2022-09-17T04:54:22.799Z,76.87
2022-09-17T04:56:24.466Z,75.33
2022-09-17T04:58:26.214Z,75.46
2022-09-17T05:00:27.824Z,75.60
2022-09-17T05:02:29.683Z,75.19
2022-09-17T05:04:31.419Z,75.13
2022-09-17T05:06:33.211Z,75.14
2022-09-17T05:08:34.814Z,75.04
2022-09-17T05:10:36.507Z,74.96
2022-09-17T05:12:38.151Z,75.11
2022-09-17T05:14:39.748Z,74.97
2022-09-17T05:16:41.474Z,74.98
2022-09-17T05:18:43.190Z,74.93
2022-09-17T05:20:44.790Z,74.59
2022-09-17T05:22:49.129Z,74.52
2022-09-17T05:24:50.777Z,74.40
2022-09-17T05:26:52.351Z,73.98
2022-09-17T05:28:53.907Z,73.49
2022-09-17T05:30:58.733Z,73.21
2022-09-17T05:33:02.186Z,72.04
2022-09-17T05:35:06.130Z,71.67
2022-09-17T05:37:10.869Z,71.42
2022-09-17T05:39:12.484Z,71.73
2022-09-17T05:41:14.321Z,71.25
2022-09-17T05:43:16.197Z,70.88
2022-09-17T05:45:17.774Z,70.39
2022-09-17T05:47:19.544Z,69.68
2022-09-17T05:49:21.248Z,69.43
2022-09-17T05:51:22.942Z,68.95
2022-09-17T05:53:24.617Z,68.02
2022-09-17T05:55:26.745Z,67.61
2022-09-17T05:57:29.927Z,67.91
2022-09-17T05:59:31.794Z,67.74
2022-09-17T06:01:33.518Z,67.51
2022-09-17T06:03:35.144Z,67.29
2022-09-17T06:05:36.785Z,67.94
2022-09-17T06:07:39.346Z,68.95
2022-09-17T06:09:41.167Z,70.31
2022-09-17T06:11:42.821Z,70.85
2022-09-17T06:13:44.661Z,71.56
2022-09-17T06:15:51.257Z,74.05
2022-09-17T06:17:53.122Z,76.19
2022-09-17T06:19:54.750Z,77.26
2022-09-17T06:21:56.457Z,74.93
2022-09-17T06:23:58.013Z,74.41
2022-09-17T06:26:00.349Z,75.08
2022-09-17T06:28:03.431Z,76.80
2022-09-17T06:30:05.989Z,77.48
2022-09-17T06:32:11.055Z,77.33
2022-09-17T06:34:12.765Z,76.20
2022-09-17T06:36:14.873Z,75.38
2022-09-17T06:38:16.508Z,74.64
2022-09-17T06:40:18.151Z,74.72
2022-09-17T06:42:19.760Z,74.74
2022-09-17T06:44:21.322Z,74.26
2022-09-17T06:46:23.046Z,74.99
2022-09-17T06:48:26.900Z,75.44
2022-09-17T06:50:28.534Z,74.89
2022-09-17T06:52:30.189Z,74.78
2022-09-17T06:54:32.283Z,74.56
2022-09-17T06:56:34.424Z,74.64
2022-09-17T06:58:41.968Z,74.51
2022-09-17T07:00:43.607Z,74.08
2022-09-17T07:02:56.106Z,73.83
2022-09-17T07:04:57.867Z,73.50
2022-09-17T07:06:59.499Z,73.72
2022-09-17T07:09:01.367Z,73.14
2022-09-17T07:11:03.103Z,73.53
2022-09-17T07:13:04.677Z,73.73
2022-09-17T07:15:06.641Z,73.70
2022-09-17T07:17:08.335Z,73.36
2022-09-17T07:19:11.152Z,72.17
2022-09-17T07:21:12.845Z,72.35
2022-09-17T07:23:14.464Z,72.63
2022-09-17T07:25:16.464Z,72.54
2022-09-17T07:27:18.029Z,72.14
2022-09-17T07:29:20.742Z,72.28
2022-09-17T07:31:23.504Z,71.76
2022-09-17T07:33:27.775Z,70.41
2022-09-17T07:35:29.475Z,69.86
2022-09-17T07:37:31.326Z,70.04
2022-09-17T07:39:32.893Z,69.65
2022-09-17T07:41:34.830Z,69.95
2022-09-17T07:43:36.600Z,69.63
2022-09-17T07:45:38.173Z,69.01
2022-09-17T07:47:41.423Z,69.05
2022-09-17T07:49:43.109Z,68.35
2022-09-17T07:51:44.640Z,67.81
2022-09-17T07:53:47.792Z,68.02
2022-09-17T07:55:52.958Z,67.69
2022-09-17T07:57:54.517Z,68.66
2022-09-17T07:59:56.091Z,69.11
2022-09-17T08:01:57.952Z,69.80
2022-09-17T08:04:00.279Z,69.89
2022-09-17T08:06:06.734Z,69.72
2022-09-17T08:08:08.592Z,69.20
2022-09-17T08:10:10.271Z,68.44
2022-09-17T08:12:11.885Z,68.16
2022-09-17T08:14:15.374Z,67.63
2022-09-17T08:16:17.350Z,67.25
2022-09-17T08:18:18.971Z,68.08
2022-09-17T08:20:21.159Z,67.24
2022-09-17T08:22:22.873Z,66.54
2022-09-17T08:24:24.659Z,65.55
2022-09-17T08:26:26.851Z,64.84
2022-09-17T08:28:30.322Z,64.42
2022-09-17T08:30:32.447Z,63.30
2022-09-17T08:32:34.012Z,64.08
2022-09-17T08:34:36.819Z,64.34
2022-09-17T08:36:38.485Z,63.17
2022-09-17T08:38:40.788Z,63.46
2022-09-17T08:40:58.430Z,63.53
2022-09-17T08:43:02.467Z,63.00
2022-09-17T08:45:06.072Z,62.52
2022-09-17T08:47:36.829Z,61.74
2022-09-17T08:49:48.992Z,62.17
2022-09-17T08:52:19.143Z,60.50
2022-09-17T08:54:24.102Z,61.02
2022-09-17T08:56:26.785Z,61.30
2022-09-17T08:58:46.650Z,61.86
2022-09-17T09:00:55.992Z,61.37
2022-09-17T09:03:31.751Z,61.44
2022-09-17T09:05:48.213Z,61.85
2022-09-17T09:07:52.799Z,61.63
2022-09-17T09:10:11.548Z,61.72
2022-09-17T09:12:20.563Z,63.03
2022-09-17T09:14:28.981Z,63.68
2022-09-17T09:16:33.522Z,64.38
2022-09-17T09:18:37.966Z,64.91
2022-09-17T09:20:55.584Z,65.94
2022-09-17T09:22:58.331Z,65.37
2022-09-17T09:25:27.376Z,65.82
2022-09-17T09:27:33.494Z,67.38
2022-09-17T09:29:47.800Z,67.61
2022-09-17T09:32:16.371Z,68.02
2022-09-17T09:34:18.958Z,67.95
2022-09-17T09:36:22.176Z,68.64
2022-09-17T09:38:30.816Z,68.30
2022-09-17T09:40:55.486Z,68.79
2022-09-17T09:43:01.220Z,70.20
2022-09-17T09:45:12.869Z,71.18
2022-09-17T09:47:29.862Z,70.18
2022-09-17T09:50:09.431Z,70.41
2022-09-17T09:52:24.204Z,71.06
2022-09-17T09:54:59.626Z,72.22
2022-09-17T09:57:07.458Z,72.96
2022-09-17T09:59:12.006Z,73.79
2022-09-17T10:01:22.279Z,74.40
2022-09-17T10:03:28.194Z,75.83
2022-09-17T10:05:30.461Z,76.47
2022-09-17T10:07:32.436Z,76.74
2022-09-17T10:09:36.936Z,76.69
2022-09-17T10:11:39.559Z,76.62
2022-09-17T10:13:41.526Z,76.61
2022-09-17T10:15:43.440Z,76.74
2022-09-17T10:17:45.058Z,77.26
2022-09-17T10:20:10.571Z,77.37
2022-09-17T10:22:25.158Z,77.79
2022-09-17T10:24:31.097Z,77.42
2022-09-17T10:26:35.989Z,77.31
2022-09-17T10:28:49.032Z,77.28
2022-09-17T10:31:06.424Z,77.15
2022-09-17T10:33:20.260Z,77.02
2022-09-17T10:35:22.149Z,77.07
2022-09-17T10:37:43.629Z,77.92
2022-09-17T10:39:48.697Z,78.17
2022-09-17T10:42:11.809Z,77.94
2022-09-17T10:44:18.006Z,78.23
2022-09-17T10:46:29.082Z,80.01
2022-09-17T10:48:40.398Z,80.65
2022-09-17T10:50:41.982Z,80.31
2022-09-17T10:52:49.320Z,78.96
2022-09-17T10:55:12.288Z,76.98
2022-09-17T10:57:24.561Z,78.70
2022-09-17T10:59:41.497Z,78.69
2022-09-17T11:02:05.261Z,78.45
2022-09-17T11:04:16.333Z,79.94
2022-09-17T11:06:27.559Z,81.40
2022-09-17T11:09:02.984Z,82.09
2022-09-17T11:11:12.569Z,82.03
2022-09-17T11:13:38.744Z,80.99
2022-09-17T11:16:15.224Z,81.63
2022-09-17T11:18:25.749Z,81.99
2022-09-17T11:20:30.409Z,80.05
2022-09-17T11:22:58.143Z,81.04
2022-09-17T11:25:23.795Z,81.50
2022-09-17T11:28:07.776Z,81.62
2022-09-17T11:30:22.154Z,80.14
2022-09-17T11:32:46.116Z,80.41
2022-09-17T11:35:02.879Z,79.96
2022-09-17T11:37:23.064Z,80.48
2022-09-17T11:39:33.098Z,80.14
2022-09-17T11:41:38.582Z,79.47
2022-09-17T11:43:58.647Z,80.92
2022-09-17T11:46:08.985Z,80.56
2022-09-17T11:48:13.982Z,80.62
2022-09-17T11:50:40.509Z,80.56
2022-09-17T11:52:45.414Z,80.04
2022-09-17T11:54:50.039Z,80.19
2022-09-17T11:56:54.207Z,79.47
2022-09-17T11:59:03.716Z,79.31
2022-09-17T12:01:10.221Z,78.77
2022-09-17T12:03:43.055Z,78.56
2022-09-17T12:05:57.328Z,78.06
2022-09-17T12:08:16.308Z,77.71
2022-09-17T12:10:34.231Z,77.03
2022-09-17T12:12:49.528Z,76.36
2022-09-17T12:14:54.764Z,76.35
2022-09-17T12:17:01.173Z,76.08
2022-09-17T12:19:14.741Z,75.49
2022-09-17T12:21:21.501Z,75.93
2022-09-17T12:23:38.725Z,73.85
2022-09-17T12:26:24.740Z,70.80
2022-09-17T12:28:35.256Z,74.68
2022-09-17T12:30:42.270Z,75.09
2022-09-17T12:32:48.117Z,76.23
2022-09-17T12:35:02.263Z,76.91
2022-09-17T12:37:11.443Z,69.53
2022-09-17T12:39:33.906Z,68.89
2022-09-17T12:41:35.473Z,68.83
2022-09-17T12:43:49.502Z,68.08
2022-09-17T12:45:57.172Z,71.03
2022-09-17T12:48:06.491Z,72.26
2022-09-17T12:50:26.473Z,69.62
2022-09-17T12:52:54.074Z,63.35
2022-09-17T12:55:12.205Z,65.74
2022-09-17T12:57:41.720Z,63.92
2022-09-17T12:59:51.116Z,63.69
2022-09-17T13:02:00.576Z,63.89
2022-09-17T13:04:56.753Z,64.76
2022-09-17T13:07:18.261Z,63.00
2022-09-17T13:09:41.193Z,62.46
2022-09-17T13:12:18.163Z,63.31
2022-09-17T13:14:24.426Z,63.45
2022-09-17T13:16:40.921Z,66.99
2022-09-17T13:19:22.808Z,64.24
2022-09-17T13:21:30.758Z,62.71
2022-09-17T13:23:41.900Z,62.55
2022-09-17T13:25:52.729Z,62.09
2022-09-17T13:28:07.407Z,61.25
2022-09-17T13:30:11.176Z,62.30
2022-09-17T13:32:34.789Z,62.76
2022-09-17T13:34:36.525Z,61.41
2022-09-17T13:36:39.389Z,61.56
2022-09-17T13:38:42.117Z,63.04
2022-09-17T13:40:44.220Z,62.77
2022-09-17T13:42:49.136Z,60.90
2022-09-17T13:45:01.909Z,61.52
2022-09-17T13:47:37.232Z,61.86
2022-09-17T13:49:46.131Z,62.32
2022-09-17T13:51:49.230Z,61.00
2022-09-17T13:53:55.068Z,62.01
2022-09-17T13:56:02.034Z,62.21
2022-09-17T13:58:07.317Z,61.00
2022-09-17T14:00:47.759Z,64.72
2022-09-17T14:02:49.470Z,68.66
2022-09-17T14:04:54.667Z,69.79
2022-09-17T14:06:57.900Z,71.24
2022-09-17T14:08:59.575Z,72.63
2022-09-17T14:11:02.792Z,73.32
2022-09-17T14:13:28.204Z,73.55
2022-09-17T14:15:41.651Z,74.40
2022-09-17T14:17:53.347Z,73.80
2022-09-17T14:19:55.489Z,72.75
2022-09-17T14:22:06.090Z,73.83
2022-09-17T14:24:24.857Z,76.25
2022-09-17T14:26:36.177Z,78.43
2022-09-17T14:29:02.461Z,78.40
2022-09-17T14:31:10.023Z,77.92
2022-09-17T14:33:18.285Z,77.17
2022-09-17T14:35:38.686Z,76.20
2022-09-17T14:37:42.660Z,76.33
2022-09-17T14:39:44.767Z,76.88
2022-09-17T14:41:46.525Z,76.59
2022-09-17T14:43:59.153Z,76.31
2022-09-17T14:46:01.793Z,76.40
2022-09-17T14:48:29.727Z,76.67
2022-09-17T14:50:31.587Z,76.87
2022-09-17T14:52:33.399Z,76.70
2022-09-17T14:54:36.590Z,76.36
2022-09-17T14:56:46.681Z,76.03
2022-09-17T14:58:52.202Z,77.58
2022-09-17T15:00:53.812Z,78.36
2022-09-17T15:02:59.474Z,78.61
2022-09-17T15:05:02.833Z,78.56
2022-09-17T15:07:13.339Z,78.99
2022-09-17T15:09:22.455Z,78.87
2022-09-17T15:11:24.151Z,78.91
2022-09-17T15:13:30.748Z,78.84
2022-09-17T15:15:32.729Z,78.47
2022-09-17T15:17:35.273Z,76.90
2022-09-17T15:19:41.715Z,76.65
2022-09-17T15:21:45.119Z,76.78
2022-09-17T15:23:48.911Z,78.13
2022-09-17T15:25:52.779Z,78.46
2022-09-17T15:27:56.518Z,78.27
2022-09-17T15:30:20.359Z,78.70
2022-09-17T15:32:22.186Z,78.62
2022-09-17T15:34:23.985Z,77.98
2022-09-17T15:36:27.682Z,77.40
2022-09-17T15:38:29.806Z,76.93
2022-09-17T15:40:38.412Z,76.70
2022-09-17T15:42:40.205Z,76.78
2022-09-17T15:44:41.834Z,77.04
2022-09-17T15:46:43.676Z,76.84
2022-09-17T15:48:45.473Z,77.15
2022-09-17T15:50:52.329Z,76.38
2022-09-17T15:53:08.926Z,76.02
2022-09-17T15:55:35.704Z,75.69
2022-09-17T15:57:37.397Z,74.93
2022-09-17T15:59:38.993Z,75.41
2022-09-17T16:01:43.707Z,75.88
2022-09-17T16:03:45.374Z,75.96
2022-09-17T16:05:47.312Z,76.37
2022-09-17T16:07:49.010Z,76.63
2022-09-17T16:09:52.176Z,76.40
2022-09-17T16:11:54.380Z,75.93
2022-09-17T16:13:57.422Z,75.27
2022-09-17T16:15:59.171Z,75.13
2022-09-17T16:18:00.822Z,74.92
2022-09-17T16:20:23.759Z,74.26
2022-09-17T16:22:26.403Z,74.23
2022-09-17T16:24:27.973Z,73.87
2022-09-17T16:26:31.472Z,74.36
2022-09-17T16:28:33.749Z,74.51
2022-09-17T16:30:35.423Z,74.92
2022-09-17T16:32:37.104Z,75.25
2022-09-17T16:34:38.709Z,75.39
2022-09-17T16:36:40.317Z,75.09
2022-09-17T16:38:42.136Z,74.58
2022-09-17T16:40:46.744Z,74.91
2022-09-17T16:42:48.801Z,75.98
2022-09-17T16:44:50.430Z,76.15
2022-09-17T16:46:52.060Z,75.78
2022-09-17T16:48:53.714Z,75.31
2022-09-17T16:50:55.463Z,74.74
2022-09-17T16:53:00.411Z,74.64
2022-09-17T16:55:05.148Z,74.30
2022-09-17T16:57:06.820Z,74.14
2022-09-17T16:59:08.488Z,74.02
2022-09-17T17:01:13.161Z,73.72
2022-09-17T17:03:16.764Z,73.06
2022-09-17T17:05:18.873Z,72.88
2022-09-17T17:07:20.946Z,73.30
2022-09-17T17:09:22.632Z,74.54
2022-09-17T17:11:24.217Z,74.77
2022-09-17T17:13:27.689Z,75.39
2022-09-17T17:15:30.600Z,75.58
2022-09-17T17:17:33.070Z,77.08
2022-09-17T17:19:35.323Z,78.28
2022-09-17T17:21:37.109Z,78.87
2022-09-17T17:23:38.715Z,79.89
2022-09-17T17:25:40.550Z,79.32
2022-09-17T17:27:42.287Z,79.23
2022-09-17T17:29:44.025Z,78.91
2022-09-17T17:31:45.888Z,78.90
2022-09-17T17:33:47.620Z,78.90
2022-09-17T17:35:49.371Z,78.82
2022-09-17T17:37:51.110Z,78.89
2022-09-17T17:39:53.993Z,78.67
2022-09-17T17:41:56.347Z,78.25
2022-09-17T17:43:58.277Z,77.81
2022-09-17T17:46:00.101Z,75.94
2022-09-17T17:48:02.097Z,75.88
2022-09-17T17:50:04.136Z,76.07
2022-09-17T17:52:05.881Z,75.83
2022-09-17T17:54:08.302Z,76.69
2022-09-17T17:56:11.189Z,76.80
2022-09-17T17:58:12.753Z,77.29
2022-09-17T18:00:16.634Z,76.37
2022-09-17T18:02:18.425Z,75.33
2022-09-17T18:04:20.143Z,75.62
2022-09-17T18:06:21.686Z,75.51
2022-09-17T18:08:24.291Z,73.51
2022-09-17T18:10:25.975Z,73.27
2022-09-17T18:12:27.591Z,73.53
2022-09-17T18:14:29.227Z,74.25
2022-09-17T18:16:30.916Z,74.20
2022-09-17T18:18:35.324Z,73.20
2022-09-17T18:20:37.265Z,72.60
2022-09-17T18:22:38.881Z,72.98
2022-09-17T18:24:40.452Z,72.69
2022-09-17T18:26:42.292Z,71.44
2022-09-17T18:28:44.475Z,70.77
2022-09-17T18:30:46.201Z,71.10
2022-09-17T18:32:49.149Z,71.75
2022-09-17T18:34:53.038Z,71.82
2022-09-17T18:36:54.609Z,71.95
2022-09-17T18:39:15.549Z,72.08
2022-09-17T18:41:23.213Z,72.84
2022-09-17T18:43:24.805Z,72.27
2022-09-17T18:45:26.484Z,72.85
2022-09-17T18:47:28.204Z,73.06
2022-09-17T18:49:29.827Z,72.99
2022-09-17T18:51:31.842Z,72.33
2022-09-17T18:53:36.164Z,71.10
2022-09-17T18:55:37.718Z,71.34
2022-09-17T18:57:39.330Z,71.55
2022-09-17T18:59:40.992Z,71.16
2022-09-17T19:01:42.938Z,71.32
2022-09-17T19:03:45.070Z,72.11
2022-09-17T19:05:46.764Z,72.49
2022-09-17T19:07:48.536Z,72.53
2022-09-17T19:09:50.180Z,72.20
2022-09-17T19:11:51.728Z,71.81
2022-09-17T19:13:53.396Z,71.39
2022-09-17T19:16:01.244Z,70.98
2022-09-17T19:18:02.882Z,71.06
2022-09-17T19:20:05.124Z,72.03
2022-09-17T19:22:08.124Z,71.92
2022-09-17T19:24:09.934Z,72.04
2022-09-17T19:26:17.105Z,71.70
2022-09-17T19:28:20.381Z,71.21
2022-09-17T19:30:25.698Z,70.93
2022-09-17T19:32:28.658Z,70.90
2022-09-17T19:34:30.359Z,71.15
2022-09-17T19:36:32.273Z,71.45
2022-09-17T19:38:34.537Z,71.73
2022-09-17T19:40:36.203Z,71.62
2022-09-17T19:42:37.961Z,71.71
2022-09-17T19:44:39.847Z,71.69
2022-09-17T19:46:41.627Z,72.27
2022-09-17T19:48:54.451Z,73.02
2022-09-17T19:50:57.057Z,73.17
2022-09-17T19:52:58.765Z,72.90
2022-09-17T19:55:01.018Z,73.42
2022-09-17T19:57:02.636Z,74.27
2022-09-17T19:59:04.496Z,74.39
2022-09-17T20:01:06.202Z,74.62
2022-09-17T20:03:08.884Z,73.44
2022-09-17T20:05:10.548Z,74.35
2022-09-17T20:07:12.263Z,74.19
2022-09-17T20:09:13.809Z,74.46
2022-09-17T20:11:16.443Z,74.24
2022-09-17T20:13:18.726Z,74.64
2022-09-17T20:15:20.419Z,74.53
2022-09-17T20:17:22.079Z,73.75
2022-09-17T20:19:23.863Z,73.50
2022-09-17T20:21:31.127Z,73.79
2022-09-17T20:23:32.970Z,74.11
2022-09-17T20:25:34.946Z,74.30
2022-09-17T20:27:36.622Z,74.43
2022-09-17T20:29:38.247Z,74.03
2022-09-17T20:31:40.227Z,74.39
2022-09-17T20:33:42.156Z,74.20
2022-09-17T20:35:43.956Z,74.30
2022-09-17T20:38:33.386Z,74.45
2022-09-17T20:40:07.999Z,75.72
2022-09-17T20:42:09.719Z,76.36
2022-09-17T20:44:11.295Z,78.10
2022-09-17T20:46:13.529Z,78.39
2022-09-17T20:48:15.341Z,78.29
2022-09-17T20:50:17.004Z,78.84
2022-09-17T20:52:21.095Z,78.68
2022-09-17T20:54:23.049Z,78.76
2022-09-17T20:56:27.488Z,78.17
2022-09-17T20:58:36.507Z,78.12
2022-09-17T21:00:38.093Z,77.74
2022-09-17T21:02:41.623Z,76.80
2022-09-17T21:04:43.275Z,77.12
2022-09-17T21:06:45.735Z,77.14
2022-09-17T21:08:48.197Z,76.84
2022-09-17T21:10:49.945Z,76.69
2022-09-17T21:12:51.544Z,78.34
2022-09-17T21:14:53.204Z,77.99
2022-09-17T21:16:55.143Z,78.06
2022-09-17T21:18:58.648Z,78.02
2022-09-17T21:21:08.689Z,77.61
2022-09-17T21:23:10.331Z,78.43
2022-09-17T21:25:11.939Z,79.08
2022-09-17T21:27:13.513Z,78.91
2022-09-17T21:29:15.302Z,78.31
2022-09-17T21:31:22.349Z,78.25
2022-09-17T21:33:24.053Z,78.26
2022-09-17T21:35:29.934Z,78.59
2022-09-17T21:37:31.571Z,78.70
2022-09-17T21:39:35.616Z,78.06
2022-09-17T21:41:41.609Z,76.71
2022-09-17T21:43:44.336Z,76.56
2022-09-17T21:45:45.997Z,75.94
2022-09-17T21:47:47.815Z,75.94
2022-09-17T21:49:49.409Z,73.76
2022-09-17T21:51:51.259Z,74.13
2022-09-17T21:53:55.059Z,74.66
2022-09-17T21:56:01.474Z,74.96
2022-09-17T21:58:03.137Z,75.10
2022-09-17T22:00:06.499Z,75.24
2022-09-17T22:02:08.154Z,75.70
2022-09-17T22:04:13.238Z,75.38
2022-09-17T22:06:18.958Z,75.00
2022-09-17T22:08:20.555Z,75.37
2022-09-17T22:10:22.425Z,75.06
2022-09-17T22:12:24.008Z,74.98
2022-09-17T22:14:25.840Z,75.09
2022-09-17T22:16:30.796Z,75.21
2022-09-17T22:18:34.576Z,74.62
2022-09-17T22:20:36.024Z,74.47
2022-09-17T22:22:37.923Z,74.46
2022-09-17T22:24:43.574Z,73.89
2022-09-17T22:26:47.709Z,74.47
2022-09-17T22:28:50.289Z,73.98
2022-09-17T22:30:51.968Z,71.01
2022-09-17T22:32:53.564Z,71.58
2022-09-17T22:34:55.291Z,71.72
2022-09-17T22:36:56.913Z,71.04
2022-09-17T22:38:58.933Z,70.47
2022-09-17T22:41:17.665Z,70.13
2022-09-17T22:43:19.258Z,70.35
2022-09-17T22:45:20.818Z,70.07
2022-09-17T22:47:22.538Z,70.30
2022-09-17T22:49:24.051Z,71.03
2022-09-17T22:51:27.120Z,71.86
2022-09-17T22:53:28.928Z,71.54
2022-09-17T22:55:31.118Z,71.81
2022-09-17T22:57:32.693Z,71.88
2022-09-17T22:59:34.535Z,71.49
2022-09-17T23:01:36.695Z,72.05
2022-09-17T23:03:39.467Z,72.46
2022-09-17T23:05:41.057Z,72.09
2022-09-17T23:07:42.672Z,71.49
2022-09-17T23:09:44.396Z,71.61
2022-09-17T23:11:46.175Z,71.60
2022-09-17T23:13:48.763Z,71.37
2022-09-17T23:15:50.471Z,70.25
2022-09-17T23:17:52.239Z,70.46
2022-09-17T23:19:54.000Z,71.09
2022-09-17T23:21:55.542Z,70.88
2022-09-17T23:23:57.350Z,68.64
2022-09-17T23:26:03.510Z,69.94
2022-09-17T23:28:05.102Z,68.96
2022-09-17T23:30:07.209Z,69.37
2022-09-17T23:32:08.791Z,68.64
2022-09-17T23:34:10.695Z,68.50
2022-09-17T23:36:19.411Z,67.46
2022-09-17T23:38:20.965Z,67.64
2022-09-17T23:40:23.493Z,68.07
2022-09-17T23:42:25.496Z,67.09
2022-09-17T23:44:27.265Z,67.37
2022-09-17T23:46:31.592Z,67.29
2022-09-17T23:48:33.509Z,66.39
2022-09-17T23:50:35.228Z,67.01
2022-09-17T23:52:36.875Z,65.94
2022-09-17T23:54:38.481Z,65.33
2022-09-17T23:56:40.512Z,63.49
2022-09-17T23:58:42.202Z,62.79
